Fedora — SLKU — position and weather

sailwx.info

Track history (hours):
 
Tides and Currents Weather Stations Pressure Air Temp Water Temp Dewpoint Dewpoint Depression Visibility Wind Speed Wind Dir Waves Ship Positions

Fedora

Last reported at 2017-Aug-20 07:14 UTC. Time now 2017-Aug-20 08:04 UTC.
Position N 35°58' W 005°39'.

Length 228 m; draft 9.2 m.

Type: Cargo ship. MMSI: 266259000.

Date/timePositionNaut miles runAvg speedWind from/ knotsBaromVisibWave heightAir tempDewpointWater temp
2017-Aug-20 07:14N 35°58' W 005°39'314.1
2017-Aug-20 07:00N 35°58' W 005°35'713.6
2017-Aug-20 06:30N 36°01' W 005°27'714.9
2017-Aug-20 06:01N 36°02' W 005°18'714.6
2017-Aug-20 05:30N 36°05' W 005°10'11213.5
2017-Aug-19 21:12N 36°22' W 002°52'2814.0
2017-Aug-19 19:11N 36°25' W 002°17'2813.4
2017-Aug-19 17:06N 36°42' W 001°49'2614.7
2017-Aug-19 15:20N 36°59' W 001°25'514.6
2017-Aug-19 15:00N 37°02' W 001°20'1414.4
2017-Aug-19 14:00N 37°11' W 001°06'714.4
2017-Aug-19 13:29N 37°16' W 000°59'714.4
2017-Aug-19 13:00N 37°20' W 000°53'714.2
2017-Aug-19 12:30N 37°25' W 000°46'714.2
2017-Aug-19 12:00N 37°30' W 000°39'714.0
2017-Aug-19 11:30N 37°34' W 000°33'714.0
2017-Aug-19 11:01N 37°40' W 000°27'713.9
2017-Aug-19 10:30N 37°45' W 000°21'714.2
2017-Aug-19 10:00N 37°50' W 000°15'714.3
2017-Aug-19 09:30N 37°56' W 000°09'815.5
2017-Aug-19 09:00N 38°01' W 000°02'918.8
2017-Aug-19 08:30N 38°08' E 000°06'1019.1
2017-Aug-19 07:59N 38°16' E 000°14'1019.1
2017-Aug-19 07:27N 38°23' E 000°23'818.7
2017-Aug-19 07:00N 38°29' E 000°30'917.8
2017-Aug-19 06:30N 38°36' E 000°38'816.7
2017-Aug-19 06:00N 38°42' E 000°44'714.5
2017-Aug-19 05:30N 38°48' E 000°50'714.1
2017-Aug-19 05:00N 38°53' E 000°57'714.3
2017-Aug-19 04:30N 38°58' E 001°03'714.7
2017-Aug-19 04:00N 39°04' E 001°09'714.6
2017-Aug-19 03:30N 39°09' E 001°15'714.3
2017-Aug-19 03:00N 39°13' E 001°23'714.4
2017-Aug-19 02:30N 39°16' E 001°32'714.2
2017-Aug-19 02:00N 39°20' E 001°39'714.3
2017-Aug-19 01:30N 39°24' E 001°47'714.4
2017-Aug-19 01:00N 39°29' E 001°54'714.3
2017-Aug-19 00:30N 39°33' E 002°02'714.3
2017-Aug-19 00:00N 39°37' E 002°09'814.4
2017-Aug-18 23:28N 39°42' E 002°17'714.3
2017-Aug-18 23:00N 39°46' E 002°24'714.5
2017-Aug-18 22:30N 39°50' E 002°32'714.8
2017-Aug-18 22:00N 39°54' E 002°40'714.6
2017-Aug-18 21:30N 39°58' E 002°48'714.1
2017-Aug-18 21:00N 40°02' E 002°56'714.0
2017-Aug-18 20:30N 40°05' E 003°03'813.9
2017-Aug-18 19:56N 40°09' E 003°12'613.8
2017-Aug-18 19:30N 40°12' E 003°19'714.1
2017-Aug-18 19:00N 40°16' E 003°27'714.3
2017-Aug-18 18:30N 40°19' E 003°35'714.2
2017-Aug-18 18:00N 40°23' E 003°43'713.9
2017-Aug-18 17:30N 40°27' E 003°50'713.9
2017-Aug-18 17:00N 40°31' E 003°58'713.8
2017-Aug-18 16:31N 40°35' E 004°06'713.6
2017-Aug-18 16:00N 40°38' E 004°13'713.7
2017-Aug-18 15:30N 40°42' E 004°21'914.0
2017-Aug-18 14:51N 40°47' E 004°31'513.8
2017-Aug-18 14:30N 40°49' E 004°37'1413.9
2017-Aug-18 13:30N 40°57' E 004°52'714.0
2017-Aug-18 13:00N 41°01' E 004°60'714.0
2017-Aug-18 12:30N 41°05' E 005°08'714.1
2017-Aug-18 12:00N 41°08' E 005°16'713.8
2017-Aug-18 11:30N 41°12' E 005°23'713.9
2017-Aug-18 11:00N 41°16' E 005°31'713.9
2017-Aug-18 10:30N 41°19' E 005°39'713.9
2017-Aug-18 10:00N 41°23' E 005°47'714.1
2017-Aug-18 09:30N 41°27' E 005°55'714.0
2017-Aug-18 09:00N 41°31' E 006°03'613.0
2017-Aug-18 08:30N 41°34' E 006°10'612.6
2017-Aug-18 08:00N 41°38' E 006°17'612.5
2017-Aug-18 07:30N 41°41' E 006°24'713.6
2017-Aug-18 07:00N 41°45' E 006°32'713.7
2017-Aug-18 06:30N 41°48' E 006°40'713.8
2017-Aug-18 06:00N 41°52' E 006°47'713.9
2017-Aug-18 05:30N 41°56' E 006°55'713.7
2017-Aug-18 05:00N 41°60' E 007°03'713.7
2017-Aug-18 04:30N 42°03' E 007°11'713.5
2017-Aug-18 04:00N 42°07' E 007°19'713.6
2017-Aug-18 03:30N 42°11' E 007°26'713.6
2017-Aug-18 03:01N 42°14' E 007°34'713.9
2017-Aug-18 02:30N 42°18' E 007°42'714.0
2017-Aug-18 02:00N 42°22' E 007°50'713.7
2017-Aug-18 01:30N 42°26' E 007°57'713.7
2017-Aug-18 01:00N 42°29' E 008°05'713.6
2017-Aug-18 00:30N 42°33' E 008°13'713.3
2017-Aug-18 00:00N 42°37' E 008°21'713.4
2017-Aug-17 23:30N 42°40' E 008°28'713.7
2017-Aug-17 22:58N 42°44' E 008°37'613.9
2017-Aug-17 22:30N 42°48' E 008°44'714.1
2017-Aug-17 22:00N 42°51' E 008°52'714.0
2017-Aug-17 21:30N 42°55' E 009°00'714.0
2017-Aug-17 21:00N 42°59' E 009°08'713.8
2017-Aug-17 20:30N 43°03' E 009°16'713.8
2017-Aug-17 20:00N 43°06' E 009°24'713.9
2017-Aug-17 19:30N 43°10' E 009°33'714.1
2017-Aug-17 19:00N 43°13' E 009°41'714.1
2017-Aug-17 18:30N 43°16' E 009°50'713.8
2017-Aug-17 18:00N 43°20' E 009°58'714.1
2017-Aug-17 17:30N 43°24' E 010°05'714.2
2017-Aug-17 17:00N 43°30' E 010°11'5 9.1
2017-Aug-17 16:30N 43°32' E 010°17'2 4.6
2017-Aug-17 16:00N 43°34' E 010°18'1 1.0
2017-Aug-17 15:29N 43°35' E 010°18'0 0.0
2017-Aug-17 14:59N 43°35' E 010°18'0 0.0
2017-Aug-17 14:26N 43°35' E 010°18'0 0.0
2017-Aug-17 13:59N 43°35' E 010°18'0 0.0
2017-Aug-17 13:29N 43°35' E 010°18'0 0.0
2017-Aug-17 12:59N 43°35' E 010°18'0 0.0
2017-Aug-17 12:29N 43°35' E 010°18'0 0.0
2017-Aug-17 11:59N 43°35' E 010°18'0 0.0
2017-Aug-17 11:29N 43°35' E 010°18'0 0.0
2017-Aug-17 10:59N 43°35' E 010°18'0 0.0
2017-Aug-17 10:31N 43°35' E 010°18'0 0.0
2017-Aug-17 10:00N 43°35' E 010°18'0 0.0
2017-Aug-17 09:30N 43°35' E 010°18'0 0.0
2017-Aug-17 09:00N 43°35' E 010°18'2 4.0
2017-Aug-17 08:30N 43°33' E 010°17'3 6.8
2017-Aug-17 08:00N 43°30' E 010°14'713.2
2017-Aug-17 07:30N 43°26' E 010°08'815.9
2017-Aug-17 07:01N 43°20' E 010°00'713.6
2017-Aug-17 06:30N 43°16' E 009°53'714.4
2017-Aug-17 06:00N 43°11' E 009°46'816.0
2017-Aug-17 05:30N 43°04' E 009°39'816.7
2017-Aug-17 05:01N 42°56' E 009°40'816.8
2017-Aug-17 04:30N 42°48' E 009°43'816.3
2017-Aug-17 04:00N 42°40' E 009°48'915.8
2017-Aug-17 03:28N 42°32' E 009°52'815.5
2017-Aug-17 02:59N 42°25' E 009°56'1015.6
2017-Aug-17 02:21N 42°17' E 010°03'515.9
2017-Aug-17 02:00N 42°13' E 010°09'2015.7
2017-Aug-17 00:43N 41°59' E 010°28'315.7
2017-Aug-17 00:30N 41°57' E 010°31'915.9
2017-Aug-16 23:56N 41°50' E 010°40'716.0
2017-Aug-16 23:31N 41°45' E 010°46'1716.2
2017-Aug-16 22:26N 41°34' E 011°03'715.8
2017-Aug-16 22:00N 41°29' E 011°10'816.1
2017-Aug-16 21:30N 41°23' E 011°17'815.7
2017-Aug-16 21:00N 41°18' E 011°25'815.9
2017-Aug-16 20:30N 41°12' E 011°32'1716.0
2017-Aug-16 19:26N 41°00' E 011°49'715.9
2017-Aug-16 19:00N 40°56' E 011°55'815.8
2017-Aug-16 18:31N 40°50' E 012°03'815.7
2017-Aug-16 18:00N 40°45' E 012°10'816.0
2017-Aug-16 17:29N 40°39' E 012°18'815.9
2017-Aug-16 17:00N 40°34' E 012°25'816.0
2017-Aug-16 16:30N 40°28' E 012°33'816.2
2017-Aug-16 16:01N 40°22' E 012°40'816.4
2017-Aug-16 15:31N 40°17' E 012°48'816.5
2017-Aug-16 15:00N 40°11' E 012°55'916.7
2017-Aug-16 14:27N 40°04' E 013°04'716.9
2017-Aug-16 14:01N 39°59' E 013°11'816.9
2017-Aug-16 13:31N 39°53' E 013°19'816.9
2017-Aug-16 13:01N 39°47' E 013°27'816.9
2017-Aug-16 12:31N 39°41' E 013°35'816.7
2017-Aug-16 12:00N 39°36' E 013°43'1216.8
2017-Aug-16 11:19N 39°28' E 013°54'3116.7
2017-Aug-16 09:28N 39°06' E 014°22'1016.6
2017-Aug-16 08:53N 38°59' E 014°31'916.8
2017-Aug-16 08:22N 38°53' E 014°39'616.7
2017-Aug-16 08:00N 38°49' E 014°45'816.7
2017-Aug-16 07:31N 38°43' E 014°53'816.5
2017-Aug-16 07:00N 38°38' E 015°00'816.7
2017-Aug-16 06:30N 38°32' E 015°08'816.8
2017-Aug-16 06:01N 38°29' E 015°18'816.2
2017-Aug-16 05:31N 38°26' E 015°28'816.1
2017-Aug-16 05:00N 38°22' E 015°37'714.0
2017-Aug-16 04:30N 38°16' E 015°42'713.1
2017-Aug-16 04:00N 38°11' E 015°37'510.7
2017-Aug-16 03:31N 38°06' E 015°36'611.9
2017-Aug-16 03:00N 37°60' E 015°36'612.7
2017-Aug-16 02:30N 37°54' E 015°40'916.7
2017-Aug-16 01:59N 37°52' E 015°51'817.0
2017-Aug-16 01:29N 37°49' E 016°00'817.1
2017-Aug-16 01:00N 37°46' E 016°10'1017.1
2017-Aug-16 00:25N 37°43' E 016°23'36015.1
2017-Aug-15 00:37N 36°55' E 023°51'216.5
2017-Aug-15 00:30N 36°56' E 023°52'917.0
2017-Aug-15 00:00N 37°03' E 023°58'1017.3
2017-Aug-14 23:25N 37°12' E 024°05'717.2
2017-Aug-14 23:00N 37°18' E 024°10'1217.0
2017-Aug-14 22:18N 37°28' E 024°19'1416.8
2017-Aug-14 21:27N 37°39' E 024°29'916.2
2017-Aug-14 20:55N 37°47' E 024°33'28 1.0
2017-Aug-13 16:49N 37°35' E 024°01'618.1
2017-Aug-13 16:30N 37°36' E 023°54'816.9
2017-Aug-13 16:00N 37°39' E 023°44'917.3
2017-Aug-13 15:30N 37°47' E 023°39'715.0
2017-Aug-13 15:00N 37°54' E 023°37'3 6.6
2017-Aug-13 14:30N 37°57' E 023°36'1 1.1
2017-Aug-13 14:00N 37°58' E 023°36'0 0.0
2017-Aug-13 13:30N 37°58' E 023°36'0 0.0
2017-Aug-13 13:00N 37°58' E 023°36'0 0.0
2017-Aug-13 12:30N 37°58' E 023°36'0 0.0
2017-Aug-13 12:00N 37°58' E 023°36'0 0.0
2017-Aug-13 11:30N 37°58' E 023°36'0 0.0
2017-Aug-13 11:00N 37°58' E 023°36'0 0.0
2017-Aug-13 10:30N 37°58' E 023°36'0 0.0
2017-Aug-13 10:00N 37°58' E 023°36'0 0.0
2017-Aug-13 09:30N 37°58' E 023°36'0 0.0
2017-Aug-13 09:00N 37°58' E 023°36'0 0.0
2017-Aug-13 08:30N 37°58' E 023°36'0 0.0
2017-Aug-13 08:00N 37°58' E 023°36'1 1.1
2017-Aug-13 07:30N 37°57' E 023°36'2 3.5
2017-Aug-13 07:00N 37°55' E 023°36'2 3.1
2017-Aug-13 06:30N 37°54' E 023°36'1 2.1
2017-Aug-13 06:00N 37°53' E 023°36'1 1.1
2017-Aug-13 05:30N 37°52' E 023°37'0 0.3
2017-Aug-13 05:01N 37°53' E 023°37'0 0.8
2017-Aug-13 04:31N 37°53' E 023°36'0 0.4
2017-Aug-13 04:00N 37°53' E 023°36'0 0.0
2017-Aug-13 03:30N 37°53' E 023°36'1 1.4
2017-Aug-13 03:00N 37°53' E 023°37'2 5.0
2017-Aug-13 02:30N 37°51' E 023°39'510.9
2017-Aug-13 02:00N 37°46' E 023°42'714.7
2017-Aug-13 01:30N 37°39' E 023°46'713.9
2017-Aug-13 00:58N 37°35' E 023°54'713.6
2017-Aug-13 00:29N 37°30' E 024°00'713.8
2017-Aug-13 00:00N 37°25' E 024°05'713.3
2017-Aug-12 23:30N 37°19' E 024°10'713.8
2017-Aug-12 23:00N 37°14' E 024°14'714.6
2017-Aug-12 22:30N 37°08' E 024°19'1414.7
2017-Aug-12 21:35N 36°58' E 024°31'114.1
2017-Aug-12 21:30N 36°57' E 024°32'714.8
2017-Aug-12 21:00N 36°52' E 024°39'715.0
2017-Aug-12 20:30N 36°46' E 024°44'40116.0
2017-Aug-11 19:28N 32°28' E 030°57'817.0
2017-Aug-11 19:00N 32°23' E 031°05'5916.8
2017-Aug-11 15:29N 31°45' E 031°58'816.2
2017-Aug-11 15:00N 31°40' E 032°05'1616.2
2017-Aug-11 14:00N 31°30' E 032°20'713.8
2017-Aug-11 13:30N 31°23' E 032°22'714.0
2017-Aug-11 13:00N 31°16' E 032°21'5 9.4
2017-Aug-11 12:30N 31°12' E 032°20'4 8.3
2017-Aug-11 12:00N 31°08' E 032°19'4 8.7
2017-Aug-11 11:30N 31°03' E 032°19'4 8.9
2017-Aug-11 11:00N 30°59' E 032°19'5 9.1
2017-Aug-11 10:30N 30°54' E 032°19'4 8.9
2017-Aug-11 10:00N 30°50' E 032°19'5 9.3
2017-Aug-11 09:30N 30°45' E 032°20'4 9.2
2017-Aug-11 09:00N 30°41' E 032°21'5 9.2
2017-Aug-11 08:30N 30°36' E 032°20'  
Track history (hours):
 
Tides and Currents Weather Stations Pressure Air Temp Water Temp Dewpoint Dewpoint Depression Visibility Wind Speed Wind Dir Waves Ship Positions

Fedora

Last reported at 2017-Aug-20 07:14 UTC. Time now 2017-Aug-20 08:04 UTC.
Position N 35°58' W 005°39'.

Length 228 m; draft 9.2 m.

Type: Cargo ship. MMSI: 266259000.

Date/timePositionNaut miles runAvg speedWind from/ knotsBaromVisibWave heightAir tempDewpointWater temp
2017-Aug-20 07:14N 35°58' W 005°39'314.1
2017-Aug-20 07:00N 35°58' W 005°35'713.6
2017-Aug-20 06:30N 36°01' W 005°27'714.9
2017-Aug-20 06:01N 36°02' W 005°18'714.6
2017-Aug-20 05:30N 36°05' W 005°10'11213.5
2017-Aug-19 21:12N 36°22' W 002°52'2814.0
2017-Aug-19 19:11N 36°25' W 002°17'2813.4
2017-Aug-19 17:06N 36°42' W 001°49'2614.7
2017-Aug-19 15:20N 36°59' W 001°25'514.6
2017-Aug-19 15:00N 37°02' W 001°20'1414.4
2017-Aug-19 14:00N 37°11' W 001°06'714.4
2017-Aug-19 13:29N 37°16' W 000°59'714.4
2017-Aug-19 13:00N 37°20' W 000°53'714.2
2017-Aug-19 12:30N 37°25' W 000°46'714.2
2017-Aug-19 12:00N 37°30' W 000°39'714.0
2017-Aug-19 11:30N 37°34' W 000°33'714.0
2017-Aug-19 11:01N 37°40' W 000°27'713.9
2017-Aug-19 10:30N 37°45' W 000°21'714.2
2017-Aug-19 10:00N 37°50' W 000°15'714.3
2017-Aug-19 09:30N 37°56' W 000°09'815.5
2017-Aug-19 09:00N 38°01' W 000°02'918.8
2017-Aug-19 08:30N 38°08' E 000°06'1019.1
2017-Aug-19 07:59N 38°16' E 000°14'1019.1
2017-Aug-19 07:27N 38°23' E 000°23'818.7
2017-Aug-19 07:00N 38°29' E 000°30'917.8
2017-Aug-19 06:30N 38°36' E 000°38'816.7
2017-Aug-19 06:00N 38°42' E 000°44'714.5
2017-Aug-19 05:30N 38°48' E 000°50'714.1
2017-Aug-19 05:00N 38°53' E 000°57'714.3
2017-Aug-19 04:30N 38°58' E 001°03'714.7
2017-Aug-19 04:00N 39°04' E 001°09'714.6
2017-Aug-19 03:30N 39°09' E 001°15'714.3
2017-Aug-19 03:00N 39°13' E 001°23'714.4
2017-Aug-19 02:30N 39°16' E 001°32'714.2
2017-Aug-19 02:00N 39°20' E 001°39'714.3
2017-Aug-19 01:30N 39°24' E 001°47'714.4
2017-Aug-19 01:00N 39°29' E 001°54'714.3
2017-Aug-19 00:30N 39°33' E 002°02'714.3
2017-Aug-19 00:00N 39°37' E 002°09'814.4
2017-Aug-18 23:28N 39°42' E 002°17'714.3
2017-Aug-18 23:00N 39°46' E 002°24'714.5
2017-Aug-18 22:30N 39°50' E 002°32'714.8
2017-Aug-18 22:00N 39°54' E 002°40'714.6
2017-Aug-18 21:30N 39°58' E 002°48'714.1
2017-Aug-18 21:00N 40°02' E 002°56'714.0
2017-Aug-18 20:30N 40°05' E 003°03'813.9
2017-Aug-18 19:56N 40°09' E 003°12'613.8
2017-Aug-18 19:30N 40°12' E 003°19'714.1
2017-Aug-18 19:00N 40°16' E 003°27'714.3
2017-Aug-18 18:30N 40°19' E 003°35'714.2
2017-Aug-18 18:00N 40°23' E 003°43'713.9
2017-Aug-18 17:30N 40°27' E 003°50'713.9
2017-Aug-18 17:00N 40°31' E 003°58'713.8
2017-Aug-18 16:31N 40°35' E 004°06'713.6
2017-Aug-18 16:00N 40°38' E 004°13'713.7
2017-Aug-18 15:30N 40°42' E 004°21'914.0
2017-Aug-18 14:51N 40°47' E 004°31'513.8
2017-Aug-18 14:30N 40°49' E 004°37'1413.9
2017-Aug-18 13:30N 40°57' E 004°52'714.0
2017-Aug-18 13:00N 41°01' E 004°60'714.0
2017-Aug-18 12:30N 41°05' E 005°08'714.1
2017-Aug-18 12:00N 41°08' E 005°16'713.8
2017-Aug-18 11:30N 41°12' E 005°23'713.9
2017-Aug-18 11:00N 41°16' E 005°31'713.9
2017-Aug-18 10:30N 41°19' E 005°39'713.9
2017-Aug-18 10:00N 41°23' E 005°47'714.1
2017-Aug-18 09:30N 41°27' E 005°55'714.0
2017-Aug-18 09:00N 41°31' E 006°03'613.0
2017-Aug-18 08:30N 41°34' E 006°10'612.6
2017-Aug-18 08:00N 41°38' E 006°17'612.5
2017-Aug-18 07:30N 41°41' E 006°24'713.6
2017-Aug-18 07:00N 41°45' E 006°32'713.7
2017-Aug-18 06:30N 41°48' E 006°40'713.8
2017-Aug-18 06:00N 41°52' E 006°47'713.9
2017-Aug-18 05:30N 41°56' E 006°55'713.7
2017-Aug-18 05:00N 41°60' E 007°03'713.7
2017-Aug-18 04:30N 42°03' E 007°11'713.5
2017-Aug-18 04:00N 42°07' E 007°19'713.6
2017-Aug-18 03:30N 42°11' E 007°26'713.6
2017-Aug-18 03:01N 42°14' E 007°34'713.9
2017-Aug-18 02:30N 42°18' E 007°42'714.0
2017-Aug-18 02:00N 42°22' E 007°50'713.7
2017-Aug-18 01:30N 42°26' E 007°57'713.7
2017-Aug-18 01:00N 42°29' E 008°05'713.6
2017-Aug-18 00:30N 42°33' E 008°13'713.3
2017-Aug-18 00:00N 42°37' E 008°21'713.4
2017-Aug-17 23:30N 42°40' E 008°28'713.7
2017-Aug-17 22:58N 42°44' E 008°37'613.9
2017-Aug-17 22:30N 42°48' E 008°44'714.1
2017-Aug-17 22:00N 42°51' E 008°52'714.0
2017-Aug-17 21:30N 42°55' E 009°00'714.0
2017-Aug-17 21:00N 42°59' E 009°08'713.8
2017-Aug-17 20:30N 43°03' E 009°16'713.8
2017-Aug-17 20:00N 43°06' E 009°24'713.9
2017-Aug-17 19:30N 43°10' E 009°33'714.1
2017-Aug-17 19:00N 43°13' E 009°41'714.1
2017-Aug-17 18:30N 43°16' E 009°50'713.8
2017-Aug-17 18:00N 43°20' E 009°58'714.1
2017-Aug-17 17:30N 43°24' E 010°05'714.2
2017-Aug-17 17:00N 43°30' E 010°11'5 9.1
2017-Aug-17 16:30N 43°32' E 010°17'2 4.6
2017-Aug-17 16:00N 43°34' E 010°18'1 1.0
2017-Aug-17 15:29N 43°35' E 010°18'0 0.0
2017-Aug-17 14:59N 43°35' E 010°18'0 0.0
2017-Aug-17 14:26N 43°35' E 010°18'0 0.0
2017-Aug-17 13:59N 43°35' E 010°18'0 0.0
2017-Aug-17 13:29N 43°35' E 010°18'0 0.0
2017-Aug-17 12:59N 43°35' E 010°18'0 0.0
2017-Aug-17 12:29N 43°35' E 010°18'0 0.0
2017-Aug-17 11:59N 43°35' E 010°18'0 0.0
2017-Aug-17 11:29N 43°35' E 010°18'0 0.0
2017-Aug-17 10:59N 43°35' E 010°18'0 0.0
2017-Aug-17 10:31N 43°35' E 010°18'0 0.0
2017-Aug-17 10:00N 43°35' E 010°18'0 0.0
2017-Aug-17 09:30N 43°35' E 010°18'0 0.0
2017-Aug-17 09:00N 43°35' E 010°18'2 4.0
2017-Aug-17 08:30N 43°33' E 010°17'3 6.8
2017-Aug-17 08:00N 43°30' E 010°14'713.2
2017-Aug-17 07:30N 43°26' E 010°08'815.9
2017-Aug-17 07:01N 43°20' E 010°00'713.6
2017-Aug-17 06:30N 43°16' E 009°53'714.4
2017-Aug-17 06:00N 43°11' E 009°46'816.0
2017-Aug-17 05:30N 43°04' E 009°39'816.7
2017-Aug-17 05:01N 42°56' E 009°40'816.8
2017-Aug-17 04:30N 42°48' E 009°43'816.3
2017-Aug-17 04:00N 42°40' E 009°48'915.8
2017-Aug-17 03:28N 42°32' E 009°52'815.5
2017-Aug-17 02:59N 42°25' E 009°56'1015.6
2017-Aug-17 02:21N 42°17' E 010°03'515.9
2017-Aug-17 02:00N 42°13' E 010°09'2015.7
2017-Aug-17 00:43N 41°59' E 010°28'315.7
2017-Aug-17 00:30N 41°57' E 010°31'915.9
2017-Aug-16 23:56N 41°50' E 010°40'716.0
2017-Aug-16 23:31N 41°45' E 010°46'1716.2
2017-Aug-16 22:26N 41°34' E 011°03'715.8
2017-Aug-16 22:00N 41°29' E 011°10'816.1
2017-Aug-16 21:30N 41°23' E 011°17'815.7
2017-Aug-16 21:00N 41°18' E 011°25'815.9
2017-Aug-16 20:30N 41°12' E 011°32'1716.0
2017-Aug-16 19:26N 41°00' E 011°49'715.9
2017-Aug-16 19:00N 40°56' E 011°55'815.8
2017-Aug-16 18:31N 40°50' E 012°03'815.7
2017-Aug-16 18:00N 40°45' E 012°10'816.0
2017-Aug-16 17:29N 40°39' E 012°18'815.9
2017-Aug-16 17:00N 40°34' E 012°25'816.0
2017-Aug-16 16:30N 40°28' E 012°33'816.2
2017-Aug-16 16:01N 40°22' E 012°40'816.4
2017-Aug-16 15:31N 40°17' E 012°48'816.5
2017-Aug-16 15:00N 40°11' E 012°55'916.7
2017-Aug-16 14:27N 40°04' E 013°04'716.9
2017-Aug-16 14:01N 39°59' E 013°11'816.9
2017-Aug-16 13:31N 39°53' E 013°19'816.9
2017-Aug-16 13:01N 39°47' E 013°27'816.9
2017-Aug-16 12:31N 39°41' E 013°35'816.7
2017-Aug-16 12:00N 39°36' E 013°43'1216.8
2017-Aug-16 11:19N 39°28' E 013°54'3116.7
2017-Aug-16 09:28N 39°06' E 014°22'1016.6
2017-Aug-16 08:53N 38°59' E 014°31'916.8
2017-Aug-16 08:22N 38°53' E 014°39'616.7
2017-Aug-16 08:00N 38°49' E 014°45'816.7
2017-Aug-16 07:31N 38°43' E 014°53'816.5
2017-Aug-16 07:00N 38°38' E 015°00'816.7
2017-Aug-16 06:30N 38°32' E 015°08'816.8
2017-Aug-16 06:01N 38°29' E 015°18'816.2
2017-Aug-16 05:31N 38°26' E 015°28'816.1
2017-Aug-16 05:00N 38°22' E 015°37'714.0
2017-Aug-16 04:30N 38°16' E 015°42'713.1
2017-Aug-16 04:00N 38°11' E 015°37'510.7
2017-Aug-16 03:31N 38°06' E 015°36'611.9
2017-Aug-16 03:00N 37°60' E 015°36'612.7
2017-Aug-16 02:30N 37°54' E 015°40'916.7
2017-Aug-16 01:59N 37°52' E 015°51'817.0
2017-Aug-16 01:29N 37°49' E 016°00'817.1
2017-Aug-16 01:00N 37°46' E 016°10'1017.1
2017-Aug-16 00:25N 37°43' E 016°23'36015.1
2017-Aug-15 00:37N 36°55' E 023°51'216.5
2017-Aug-15 00:30N 36°56' E 023°52'917.0
2017-Aug-15 00:00N 37°03' E 023°58'1017.3
2017-Aug-14 23:25N 37°12' E 024°05'717.2
2017-Aug-14 23:00N 37°18' E 024°10'1217.0
2017-Aug-14 22:18N 37°28' E 024°19'1416.8
2017-Aug-14 21:27N 37°39' E 024°29'916.2
2017-Aug-14 20:55N 37°47' E 024°33'28 1.0
2017-Aug-13 16:49N 37°35' E 024°01'618.1
2017-Aug-13 16:30N 37°36' E 023°54'816.9
2017-Aug-13 16:00N 37°39' E 023°44'917.3
2017-Aug-13 15:30N 37°47' E 023°39'715.0
2017-Aug-13 15:00N 37°54' E 023°37'3 6.6
2017-Aug-13 14:30N 37°57' E 023°36'1 1.1
2017-Aug-13 14:00N 37°58' E 023°36'0 0.0
2017-Aug-13 13:30N 37°58' E 023°36'0 0.0
2017-Aug-13 13:00N 37°58' E 023°36'0 0.0
2017-Aug-13 12:30N 37°58' E 023°36'0 0.0
2017-Aug-13 12:00N 37°58' E 023°36'0 0.0
2017-Aug-13 11:30N 37°58' E 023°36'0 0.0
2017-Aug-13 11:00N 37°58' E 023°36'0 0.0
2017-Aug-13 10:30N 37°58' E 023°36'0 0.0
2017-Aug-13 10:00N 37°58' E 023°36'0 0.0
2017-Aug-13 09:30N 37°58' E 023°36'0 0.0
2017-Aug-13 09:00N 37°58' E 023°36'0 0.0
2017-Aug-13 08:30N 37°58' E 023°36'0 0.0
2017-Aug-13 08:00N 37°58' E 023°36'1 1.1
2017-Aug-13 07:30N 37°57' E 023°36'2 3.5
2017-Aug-13 07:00N 37°55' E 023°36'2 3.1
2017-Aug-13 06:30N 37°54' E 023°36'1 2.1
2017-Aug-13 06:00N 37°53' E 023°36'1 1.1
2017-Aug-13 05:30N 37°52' E 023°37'0 0.3
2017-Aug-13 05:01N 37°53' E 023°37'0 0.8
2017-Aug-13 04:31N 37°53' E 023°36'0 0.4
2017-Aug-13 04:00N 37°53' E 023°36'0 0.0
2017-Aug-13 03:30N 37°53' E 023°36'1 1.4
2017-Aug-13 03:00N 37°53' E 023°37'2 5.0
2017-Aug-13 02:30N 37°51' E 023°39'510.9
2017-Aug-13 02:00N 37°46' E 023°42'714.7
2017-Aug-13 01:30N 37°39' E 023°46'713.9
2017-Aug-13 00:58N 37°35' E 023°54'713.6
2017-Aug-13 00:29N 37°30' E 024°00'713.8
2017-Aug-13 00:00N 37°25' E 024°05'713.3
2017-Aug-12 23:30N 37°19' E 024°10'713.8
2017-Aug-12 23:00N 37°14' E 024°14'714.6
2017-Aug-12 22:30N 37°08' E 024°19'1414.7
2017-Aug-12 21:35N 36°58' E 024°31'114.1
2017-Aug-12 21:30N 36°57' E 024°32'714.8
2017-Aug-12 21:00N 36°52' E 024°39'715.0
2017-Aug-12 20:30N 36°46' E 024°44'40116.0
2017-Aug-11 19:28N 32°28' E 030°57'817.0
2017-Aug-11 19:00N 32°23' E 031°05'5916.8
2017-Aug-11 15:29N 31°45' E 031°58'816.2
2017-Aug-11 15:00N 31°40' E 032°05'1616.2
2017-Aug-11 14:00N 31°30' E 032°20'713.8
2017-Aug-11 13:30N 31°23' E 032°22'714.0
2017-Aug-11 13:00N 31°16' E 032°21'5 9.4
2017-Aug-11 12:30N 31°12' E 032°20'4 8.3
2017-Aug-11 12:00N 31°08' E 032°19'4 8.7
2017-Aug-11 11:30N 31°03' E 032°19'4 8.9
2017-Aug-11 11:00N 30°59' E 032°19'5 9.1
2017-Aug-11 10:30N 30°54' E 032°19'4 8.9
2017-Aug-11 10:00N 30°50' E 032°19'5 9.3
2017-Aug-11 09:30N 30°45' E 032°20'4 9.2
2017-Aug-11 09:00N 30°41' E 032°21'5 9.2
2017-Aug-11 08:30N 30°36' E 032°20'  

Dump ship's entire track history